Time;durP1;ratioP1;P1;durP2;ratioP2;P2;SDS_P1;SDS_P2;PMS_P1;PMS_P2;Temp;Humidity;BMP_temperature;BMP_pressure;BME280_temperature;BME280_humidity;BME280_pressure;Samples;Min_cycle;Max_cycle;Signal;HPM_P1;HPM_P2
2022/08/16 00:00:00;;;;;;;21.93;15.37;;;;;;;;;;6193144;28;20042;-78
2022/08/16 00:03:01;;;;;;;22.07;15.13;;;;;;;;;;6195548;28;20014;-78
2022/08/16 00:06:01;;;;;;;22.67;14.77;;;;;;;;;;6182247;28;20018;-78
2022/08/16 00:09:02;;;;;;;24.10;15.37;;;;;;;;;;6175637;28;20021;-78
2022/08/16 00:12:02;;;;;;;27.70;15.23;;;;;;;;;;6187252;28;20394;-78
2022/08/16 00:15:05;;;;;;;20.83;14.17;;;;;;;;;;6187522;28;20106;-78
2022/08/16 00:18:06;;;;;;;21.65;14.55;;;;;;;;;;6177937;28;20538;-78
2022/08/16 00:21:06;;;;;;;19.27;13.77;;;;;;;;;;6180296;28;20018;-78
2022/08/16 00:24:06;;;;;;;22.63;14.47;;;;;;;;;;6188089;28;20375;-78
2022/08/16 00:27:07;;;;;;;22.90;13.83;;;;;;;;;;6196946;28;20030;-78
2022/08/16 00:30:08;;;;;;;23.97;15.97;;;;;;;;;;6188045;28;20023;-78
2022/08/16 00:33:08;;;;;;;18.35;12.80;;;;;;;;;;6194064;28;20046;-78
2022/08/16 00:36:09;;;;;;;20.33;14.10;;;;;;;;;;6179990;28;20029;-78
2022/08/16 00:39:09;;;;;;;22.97;15.10;;;;;;;;;;6192482;28;20026;-78
2022/08/16 00:42:09;;;;;;;18.58;13.32;;;;;;;;;;6183695;28;20053;-78
2022/08/16 00:45:23;;;;;;;23.07;15.87;;;;;;;;;;6184603;28;20015;-78
2022/08/16 00:48:24;;;;;;;20.95;14.23;;;;;;;;;;6189239;28;20046;-78
2022/08/16 00:51:25;;;;;;;21.87;13.67;;;;;;;;;;6193612;28;20034;-78
2022/08/16 00:54:26;;;;;;;20.53;13.43;;;;;;;;;;6196424;28;20025;-77
2022/08/16 00:57:26;;;;;;;17.88;13.13;;;;;;;;;;6185614;28;20046;-77
2022/08/16 01:00:28;;;;;;;17.60;13.73;;;;;;;;;;6185714;28;20558;-77
2022/08/16 01:03:29;;;;;;;19.35;14.18;;;;;;;;;;6174480;28;20089;-77
2022/08/16 01:06:29;;;;;;;19.13;13.37;;;;;;;;;;6180982;28;20411;-77
2022/08/16 01:09:31;;;;;;;18.27;12.80;;;;;;;;;;6188458;28;20046;-77
2022/08/16 01:12:31;;;;;;;;;;;;;;;;;;6191005;28;20101;-77
2022/08/16 01:15:32;;;;;;;23.02;14.20;;;;;;;;;;6180335;28;19906;-77
2022/08/16 01:18:35;;;;;;;20.02;13.73;;;;;;;;;;6184096;28;20097;-77
2022/08/16 01:21:56;;;;;;;22.48;12.93;;;;;;;;;;6188617;28;20050;-77
2022/08/16 01:24:59;;;;;;;18.55;13.65;;;;;;;;;;6193852;28;20446;-77
2022/08/16 01:28:00;;;;;;;22.40;13.85;;;;;;;;;;6181354;28;20045;-77
2022/08/16 01:31:03;;;;;;;20.48;13.85;;;;;;;;;;6188667;28;20045;-77
2022/08/16 01:34:04;;;;;;;21.92;14.23;;;;;;;;;;6190672;28;20018;-77
2022/08/16 01:37:06;;;;;;;17.13;12.63;;;;;;;;;;6185974;28;20026;-77
2022/08/16 01:40:06;;;;;;;17.00;12.77;;;;;;;;;;6189375;28;20081;-77
2022/08/16 01:43:07;;;;;;;19.23;12.23;;;;;;;;;;6181237;28;20387;-77
2022/08/16 01:46:16;;;;;;;18.13;11.70;;;;;;;;;;6181105;28;20041;-76
2022/08/16 01:49:37;;;;;;;17.55;11.50;;;;;;;;;;6193756;28;20017;-77
2022/08/16 01:52:39;;;;;;;15.98;11.60;;;;;;;;;;6183907;28;20109;-77
2022/08/16 01:55:40;;;;;;;20.45;11.70;;;;;;;;;;6180196;28;20026;-77
2022/08/16 01:58:40;;;;;;;22.80;13.40;;;;;;;;;;6196790;28;20038;-77
2022/08/16 02:01:41;;;;;;;19.20;13.03;;;;;;;;;;6195049;28;20042;-77
2022/08/16 02:04:41;;;;;;;20.07;11.10;;;;;;;;;;6192710;28;20037;-77
2022/08/16 02:07:42;;;;;;;20.60;13.90;;;;;;;;;;6194422;28;20014;-77
2022/08/16 02:10:42;;;;;;;18.40;13.03;;;;;;;;;;6196015;28;21175;-77
2022/08/16 02:13:42;;;;;;;16.93;11.87;;;;;;;;;;6182097;28;20034;-77
2022/08/16 02:16:43;;;;;;;23.67;13.70;;;;;;;;;;6173961;28;20027;-76
2022/08/16 02:19:44;;;;;;;20.30;13.47;;;;;;;;;;6180565;28;20058;-77
2022/08/16 02:22:44;;;;;;;21.67;12.30;;;;;;;;;;6187858;28;20031;-77
2022/08/16 02:25:46;;;;;;;20.53;12.83;;;;;;;;;;6180314;28;20345;-77
2022/08/16 02:28:46;;;;;;;19.40;12.98;;;;;;;;;;6187986;28;20021;-77
2022/08/16 02:31:48;;;;;;;19.67;12.83;;;;;;;;;;6178939;28;20050;-78
2022/08/16 02:34:48;;;;;;;19.83;11.73;;;;;;;;;;6186841;28;20015;-77
2022/08/16 02:37:48;;;;;;;20.20;12.70;;;;;;;;;;6183874;28;20026;-77
2022/08/16 02:40:48;;;;;;;21.50;13.30;;;;;;;;;;6177521;28;20124;-77
2022/08/16 02:43:48;;;;;;;17.63;10.63;;;;;;;;;;6187216;28;20540;-77
2022/08/16 02:46:49;;;;;;;17.30;10.47;;;;;;;;;;6178946;28;20427;-77
2022/08/16 02:49:49;;;;;;;19.23;12.13;;;;;;;;;;6186373;28;20066;-77
2022/08/16 02:52:49;;;;;;;24.27;14.10;;;;;;;;;;6192099;28;20534;-77
2022/08/16 02:55:50;;;;;;;16.33;10.73;;;;;;;;;;6189037;28;20395;-77
2022/08/16 02:58:51;;;;;;;19.40;11.47;;;;;;;;;;6187382;28;20055;-76
2022/08/16 03:01:51;;;;;;;18.50;11.70;;;;;;;;;;6171577;28;20054;-76
2022/08/16 03:04:52;;;;;;;16.33;10.77;;;;;;;;;;6172043;28;20007;-77
2022/08/16 03:07:52;;;;;;;18.70;11.50;;;;;;;;;;6185038;28;20026;-77
2022/08/16 03:10:52;;;;;;;14.02;10.25;;;;;;;;;;6181253;28;20041;-77
2022/08/16 03:13:53;;;;;;;18.03;11.77;;;;;;;;;;6190611;28;20049;-77
2022/08/16 03:16:53;;;;;;;14.97;10.93;;;;;;;;;;6193145;28;20148;-77
2022/08/16 03:19:54;;;;;;;16.47;9.77;;;;;;;;;;6177172;28;20035;-77
2022/08/16 03:22:54;;;;;;;17.10;9.10;;;;;;;;;;6190730;28;20033;-77
2022/08/16 03:25:54;;;;;;;19.83;11.57;;;;;;;;;;6181548;28;20019;-77
2022/08/16 03:28:54;;;;;;;19.17;11.80;;;;;;;;;;6184263;28;20069;-77
2022/08/16 03:31:55;;;;;;;16.03;11.00;;;;;;;;;;6193309;28;20019;-77
2022/08/16 03:34:55;;;;;;;19.97;12.13;;;;;;;;;;6183217;28;20106;-77
2022/08/16 03:37:56;;;;;;;17.97;11.30;;;;;;;;;;6197632;28;20017;-77
2022/08/16 03:40:57;;;;;;;19.85;12.63;;;;;;;;;;6188840;28;20044;-77
2022/08/16 03:43:57;;;;;;;21.70;11.77;;;;;;;;;;6192846;28;20058;-77
2022/08/16 03:46:57;;;;;;;16.53;10.70;;;;;;;;;;6183804;28;20054;-77
2022/08/16 03:49:58;;;;;;;18.33;10.75;;;;;;;;;;6196978;28;20061;-77
2022/08/16 03:52:58;;;;;;;19.50;11.13;;;;;;;;;;6197452;28;20041;-77
2022/08/16 03:55:58;;;;;;;20.03;11.47;;;;;;;;;;6196387;28;20047;-77
2022/08/16 03:58:58;;;;;;;16.33;11.20;;;;;;;;;;6182150;28;20473;-76
2022/08/16 04:01:59;;;;;;;16.00;11.17;;;;;;;;;;6197139;28;20041;-76
2022/08/16 04:04:59;;;;;;;20.07;11.30;;;;;;;;;;6195002;28;20011;-77
2022/08/16 04:07:59;;;;;;;16.60;11.13;;;;;;;;;;6197727;28;20037;-77
2022/08/16 04:11:00;;;;;;;17.00;11.20;;;;;;;;;;6198966;28;20597;-77
2022/08/16 04:14:00;;;;;;;18.03;11.97;;;;;;;;;;6193697;28;20025;-77
2022/08/16 04:17:01;;;;;;;17.63;10.57;;;;;;;;;;6177575;28;20022;-78
2022/08/16 04:20:06;;;;;;;18.03;9.27;;;;;;;;;;6189493;28;20019;-77
2022/08/16 04:23:07;;;;;;;14.27;8.80;;;;;;;;;;6189144;28;20479;-77
2022/08/16 04:26:08;;;;;;;18.63;11.48;;;;;;;;;;6182775;28;20165;-77
2022/08/16 04:29:08;;;;;;;66.03;14.87;;;;;;;;;;6184198;28;20014;-77
2022/08/16 04:32:08;;;;;;;42.63;14.63;;;;;;;;;;6191419;28;20018;-76
2022/08/16 04:35:10;;;;;;;32.63;14.20;;;;;;;;;;6181252;28;20027;-76
2022/08/16 04:38:10;;;;;;;;;;;;;;;;;;6189729;28;20046;-77
2022/08/16 04:41:11;;;;;;;90.67;16.53;;;;;;;;;;6193906;28;20378;-77
2022/08/16 04:44:12;;;;;;;60.37;16.30;;;;;;;;;;6189782;28;20015;-77
2022/08/16 04:47:12;;;;;;;70.72;15.00;;;;;;;;;;6188958;28;20015;-76
2022/08/16 04:50:22;;;;;;;43.93;15.53;;;;;;;;;;6192815;28;20026;-77
2022/08/16 04:53:23;;;;;;;29.02;14.75;;;;;;;;;;6189531;28;20543;-77
2022/08/16 04:56:23;;;;;;;26.70;15.40;;;;;;;;;;6190976;28;20018;-77
2022/08/16 04:59:23;;;;;;;25.17;15.57;;;;;;;;;;6192741;28;20118;-76
2022/08/16 05:02:23;;;;;;;25.63;17.33;;;;;;;;;;6179997;28;20026;-78
2022/08/16 05:05:24;;;;;;;25.50;18.43;;;;;;;;;;6195930;28;20033;-77
2022/08/16 05:08:24;;;;;;;23.43;15.57;;;;;;;;;;6176488;28;20019;-77
2022/08/16 05:11:26;;;;;;;19.00;14.87;;;;;;;;;;6184975;28;20019;-77
2022/08/16 05:14:27;;;;;;;19.35;15.27;;;;;;;;;;6178624;28;20030;-77
2022/08/16 05:17:27;;;;;;;23.50;14.05;;;;;;;;;;6184738;28;20025;-77
2022/08/16 05:20:28;;;;;;;17.47;12.97;;;;;;;;;;6192849;28;20030;-77
2022/08/16 05:23:28;;;;;;;19.70;13.87;;;;;;;;;;6182685;28;20023;-77
2022/08/16 05:26:29;;;;;;;20.83;12.50;;;;;;;;;;6183914;28;20019;-77
2022/08/16 05:29:30;;;;;;;18.45;13.65;;;;;;;;;;6189439;28;20439;-77
2022/08/16 05:32:30;;;;;;;19.65;14.13;;;;;;;;;;6187918;28;20034;-77
2022/08/16 05:35:30;;;;;;;16.67;11.83;;;;;;;;;;6187373;28;20069;-78
2022/08/16 05:38:30;;;;;;;20.87;13.53;;;;;;;;;;6192761;28;20185;-78
2022/08/16 05:41:30;;;;;;;17.52;11.45;;;;;;;;;;6180183;28;20022;-77
2022/08/16 05:44:31;;;;;;;18.80;11.80;;;;;;;;;;6187023;28;20018;-78
2022/08/16 05:47:31;;;;;;;;;;;;;;;;;;6188012;28;20029;-78
2022/08/16 05:50:31;;;;;;;18.23;13.10;;;;;;;;;;6193050;28;19917;-78
2022/08/16 05:53:31;;;;;;;19.73;11.63;;;;;;;;;;6186683;28;20023;-78
2022/08/16 05:56:31;;;;;;;19.60;12.63;;;;;;;;;;6185827;28;20047;-78
2022/08/16 05:59:32;;;;;;;18.83;12.87;;;;;;;;;;6191577;28;20077;-77
2022/08/16 06:02:33;;;;;;;18.27;12.17;;;;;;;;;;6181766;28;20273;-77
2022/08/16 06:05:33;;;;;;;22.55;12.40;;;;;;;;;;6191102;28;20018;-77
2022/08/16 06:08:33;;;;;;;20.20;14.13;;;;;;;;;;6189904;28;20104;-77
2022/08/16 06:11:33;;;;;;;18.70;13.00;;;;;;;;;;6190501;28;20018;-77
2022/08/16 06:14:33;;;;;;;20.70;14.33;;;;;;;;;;6193262;28;20011;-77
2022/08/16 06:17:34;;;;;;;17.23;13.83;;;;;;;;;;6187759;28;20022;-77
2022/08/16 06:20:34;;;;;;;17.67;11.23;;;;;;;;;;6186380;28;20541;-78
2022/08/16 06:23:34;;;;;;;17.60;13.07;;;;;;;;;;6185417;28;20015;-78
2022/08/16 06:26:35;;;;;;;21.40;12.60;;;;;;;;;;6185768;28;20053;-78
2022/08/16 06:29:35;;;;;;;16.17;12.00;;;;;;;;;;6186554;28;20023;-78
2022/08/16 06:32:35;;;;;;;17.13;11.20;;;;;;;;;;6192117;28;20027;-78
2022/08/16 06:35:36;;;;;;;18.23;13.90;;;;;;;;;;6190327;28;20457;-78
2022/08/16 06:38:36;;;;;;;23.10;17.03;;;;;;;;;;6191379;28;20027;-78
2022/08/16 06:41:36;;;;;;;25.10;18.83;;;;;;;;;;6194180;28;20025;-78
2022/08/16 06:44:36;;;;;;;25.88;18.25;;;;;;;;;;6191665;28;20379;-78
2022/08/16 06:47:37;;;;;;;25.65;19.17;;;;;;;;;;6183998;28;20014;-79
2022/08/16 06:50:37;;;;;;;22.23;17.03;;;;;;;;;;6198686;28;20034;-78
2022/08/16 06:53:37;;;;;;;21.38;15.80;;;;;;;;;;6192803;28;20113;-78
2022/08/16 06:56:37;;;;;;;24.70;15.90;;;;;;;;;;6199822;28;20376;-79
2022/08/16 06:59:38;;;;;;;21.17;16.67;;;;;;;;;;6200569;28;20536;-78
2022/08/16 07:02:43;;;;;;;24.87;16.00;;;;;;;;;;6195075;28;20029;-78
2022/08/16 07:05:43;;;;;;;20.58;14.35;;;;;;;;;;6191477;28;20014;-78
2022/08/16 07:08:45;;;;;;;21.87;15.20;;;;;;;;;;6182112;28;20392;-78
2022/08/16 07:11:45;;;;;;;21.40;14.68;;;;;;;;;;6195910;28;20015;-78
2022/08/16 07:14:47;;;;;;;18.55;14.52;;;;;;;;;;6193500;28;20077;-79
2022/08/16 07:17:50;;;;;;;20.27;14.68;;;;;;;;;;6194812;28;20023;-78
2022/08/16 07:20:52;;;;;;;20.65;14.55;;;;;;;;;;6195751;28;20492;-79
2022/08/16 07:23:52;;;;;;;19.10;13.88;;;;;;;;;;6196517;28;20042;-79
2022/08/16 07:26:53;;;;;;;23.45;14.15;;;;;;;;;;6198138;28;20014;-79
2022/08/16 07:29:53;;;;;;;23.57;14.03;;;;;;;;;;6191983;28;20062;-78
2022/08/16 07:32:54;;;;;;;20.47;14.07;;;;;;;;;;6190989;28;20415;-79
2022/08/16 07:35:54;;;;;;;18.85;12.65;;;;;;;;;;6194114;28;20451;-79
2022/08/16 07:38:54;;;;;;;16.00;13.20;;;;;;;;;;6192325;28;20026;-78
2022/08/16 07:41:54;;;;;;;18.73;12.97;;;;;;;;;;6192295;28;20022;-79
2022/08/16 07:44:56;;;;;;;17.37;13.43;;;;;;;;;;6195796;28;20013;-79
2022/08/16 07:47:56;;;;;;;18.73;13.30;;;;;;;;;;6193795;28;20075;-79
2022/08/16 07:50:57;;;;;;;22.03;13.97;;;;;;;;;;6196416;28;20482;-79
2022/08/16 07:53:57;;;;;;;18.83;12.77;;;;;;;;;;6193485;28;20030;-80
2022/08/16 07:56:57;;;;;;;21.03;13.60;;;;;;;;;;6193288;28;20118;-80
2022/08/16 07:59:59;;;;;;;21.48;13.07;;;;;;;;;;6198431;28;20022;-80
2022/08/16 08:02:59;;;;;;;16.80;12.50;;;;;;;;;;6196392;28;20121;-79
2022/08/16 08:06:00;;;;;;;18.93;11.53;;;;;;;;;;6199061;28;20034;-80
2022/08/16 08:09:00;;;;;;;15.82;12.43;;;;;;;;;;6197418;28;20032;-79
2022/08/16 08:12:00;;;;;;;14.83;11.63;;;;;;;;;;6192084;28;20041;-78
2022/08/16 08:15:01;;;;;;;19.35;11.82;;;;;;;;;;6190355;28;20094;-77
2022/08/16 08:18:01;;;;;;;14.82;10.57;;;;;;;;;;6191815;28;20037;-77
2022/08/16 08:21:02;;;;;;;15.33;9.77;;;;;;;;;;6195489;28;20498;-78
2022/08/16 08:24:02;;;;;;;16.67;11.10;;;;;;;;;;6188478;28;20014;-79
2022/08/16 08:27:03;;;;;;;13.40;10.05;;;;;;;;;;6185127;28;20026;-80
2022/08/16 08:30:04;;;;;;;16.15;10.02;;;;;;;;;;6185483;28;20136;-79
2022/08/16 08:33:06;;;;;;;15.40;10.43;;;;;;;;;;6190509;28;20042;-80
2022/08/16 08:36:14;;;;;;;14.25;10.20;;;;;;;;;;6186589;28;20023;-80
2022/08/16 08:39:14;;;;;;;13.43;9.50;;;;;;;;;;6188575;28;20049;-79
2022/08/16 08:42:15;;;;;;;14.37;9.17;;;;;;;;;;6188004;28;20015;-79
2022/08/16 08:45:15;;;;;;;14.00;9.50;;;;;;;;;;6180967;28;20031;-79
2022/08/16 08:48:16;;;;;;;12.13;9.63;;;;;;;;;;6197847;28;20018;-79
2022/08/16 08:51:17;;;;;;;13.70;9.10;;;;;;;;;;6190318;28;20026;-79
2022/08/16 08:54:18;;;;;;;13.20;8.93;;;;;;;;;;6191427;28;20022;-80
2022/08/16 08:57:18;;;;;;;12.73;9.37;;;;;;;;;;6187037;28;20525;-79
2022/08/16 09:00:19;;;;;;;13.40;9.60;;;;;;;;;;6187775;28;20407;-79
2022/08/16 09:03:20;;;;;;;13.05;9.15;;;;;;;;;;6184087;28;20039;-79
2022/08/16 09:06:20;;;;;;;12.00;9.07;;;;;;;;;;6196198;28;20031;-79
2022/08/16 09:09:20;;;;;;;14.15;8.55;;;;;;;;;;6188304;28;20081;-80
2022/08/16 09:12:21;;;;;;;12.82;9.40;;;;;;;;;;6197681;28;20042;-80
2022/08/16 09:15:21;;;;;;;11.77;8.27;;;;;;;;;;6196636;28;20049;-80
2022/08/16 09:18:22;;;;;;;15.83;9.07;;;;;;;;;;6182369;28;20030;-78
2022/08/16 09:21:22;;;;;;;12.75;9.15;;;;;;;;;;6198001;28;20017;-80
2022/08/16 09:24:22;;;;;;;12.53;9.07;;;;;;;;;;6179077;28;20023;-80
2022/08/16 09:27:24;;;;;;;15.13;9.73;;;;;;;;;;6182793;28;20357;-80
2022/08/16 09:30:25;;;;;;;10.63;8.10;;;;;;;;;;6187069;28;20046;-80
2022/08/16 09:33:25;;;;;;;13.20;8.75;;;;;;;;;;6190077;28;20029;-80
2022/08/16 09:36:26;;;;;;;13.73;8.65;;;;;;;;;;6189218;28;20023;-80
2022/08/16 09:39:27;;;;;;;16.35;9.13;;;;;;;;;;6183008;28;20002;-80
2022/08/16 09:42:28;;;;;;;13.20;8.50;;;;;;;;;;6191571;28;20402;-80
2022/08/16 09:45:28;;;;;;;17.25;9.25;;;;;;;;;;6190655;28;20041;-80
2022/08/16 09:48:29;;;;;;;13.73;8.80;;;;;;;;;;6192777;28;20038;-80
2022/08/16 09:51:30;;;;;;;12.32;8.85;;;;;;;;;;6191542;28;20039;-80
2022/08/16 09:54:30;;;;;;;13.15;9.18;;;;;;;;;;6180487;28;20109;-80
2022/08/16 09:57:30;;;;;;;14.70;8.60;;;;;;;;;;6189879;28;20043;-80
2022/08/16 10:00:31;;;;;;;15.73;9.43;;;;;;;;;;6186748;28;20254;-80
2022/08/16 10:03:31;;;;;;;15.00;8.88;;;;;;;;;;6190160;28;20034;-80
2022/08/16 10:06:31;;;;;;;16.60;9.53;;;;;;;;;;6190412;28;20483;-79
2022/08/16 10:09:32;;;;;;;14.95;9.35;;;;;;;;;;6188697;28;20015;-78
2022/08/16 10:15:58;;;;;;;11.40;7.57;;;;;;;;;;6197860;28;20262;-78
2022/08/16 10:18:59;;;;;;;10.77;7.20;;;;;;;;;;6192214;28;20026;-77
2022/08/16 10:21:59;;;;;;;10.00;7.07;;;;;;;;;;6197170;28;20025;-77
2022/08/16 10:25:00;;;;;;;11.80;8.00;;;;;;;;;;6192554;28;20506;-77
2022/08/16 10:28:00;;;;;;;11.43;6.90;;;;;;;;;;6198136;28;20434;-77
2022/08/16 10:31:00;;;;;;;9.37;6.27;;;;;;;;;;6199517;28;20029;-78
2022/08/16 10:34:01;;;;;;;11.90;7.03;;;;;;;;;;6196467;28;20029;-78
2022/08/16 10:37:02;;;;;;;14.60;7.85;;;;;;;;;;6196838;28;20026;-79
2022/08/16 10:40:07;;;;;;;11.63;7.68;;;;;;;;;;6196330;28;20004;-78
2022/08/16 10:43:07;;;;;;;11.60;7.43;;;;;;;;;;6198149;28;20031;-78
2022/08/16 10:46:10;;;;;;;17.37;8.87;;;;;;;;;;6195893;28;20032;-79
2022/08/16 10:49:11;;;;;;;20.35;10.00;;;;;;;;;;6194891;28;20018;-78
2022/08/16 10:52:12;;;;;;;10.38;7.82;;;;;;;;;;6200746;28;20128;-77
2022/08/16 10:55:13;;;;;;;14.10;8.43;;;;;;;;;;6192460;28;20026;-78
2022/08/16 10:58:14;;;;;;;21.40;11.07;;;;;;;;;;6191488;28;20050;-77
2022/08/16 11:01:15;;;;;;;19.58;10.35;;;;;;;;;;6190656;28;20023;-77
2022/08/16 11:04:15;;;;;;;10.20;5.40;;;;;;;;;;6188082;28;21386;-76
2022/08/16 11:07:15;;;;;;;6.23;4.23;;;;;;;;;;6194052;28;20440;-76
2022/08/16 11:10:18;;;;;;;10.37;6.17;;;;;;;;;;6191319;28;20470;-76
2022/08/16 11:13:20;;;;;;;8.50;5.65;;;;;;;;;;6191007;28;20703;-74
2022/08/16 11:16:20;;;;;;;9.38;5.88;;;;;;;;;;6194789;28;20466;-74
2022/08/16 11:19:20;;;;;;;;;;;;;;;;;;6191968;28;20018;-76
2022/08/16 11:22:21;;;;;;;12.98;7.25;;;;;;;;;;6181419;28;19913;-76
2022/08/16 11:25:23;;;;;;;13.93;8.40;;;;;;;;;;6181220;28;20018;-76
2022/08/16 11:28:23;;;;;;;15.30;9.73;;;;;;;;;;6184463;28;20011;-78
2022/08/16 11:31:24;;;;;;;13.77;9.35;;;;;;;;;;6190788;28;20474;-80
2022/08/16 11:34:24;;;;;;;13.43;9.50;;;;;;;;;;6198742;28;20113;-79
2022/08/16 11:37:24;;;;;;;19.23;10.30;;;;;;;;;;6195815;28;20023;-79
2022/08/16 11:40:26;;;;;;;20.90;12.45;;;;;;;;;;6191911;28;20021;-79
2022/08/16 11:43:27;;;;;;;17.70;12.05;;;;;;;;;;6185689;28;20027;-78
2022/08/16 11:46:28;;;;;;;20.92;11.60;;;;;;;;;;6186902;28;20037;-79
2022/08/16 11:49:28;;;;;;;17.17;10.93;;;;;;;;;;6185464;28;20022;-78
2022/08/16 11:52:28;;;;;;;19.20;10.50;;;;;;;;;;6192081;28;20030;-78
2022/08/16 11:55:29;;;;;;;22.77;13.70;;;;;;;;;;6190558;28;20054;-78
2022/08/16 11:58:30;;;;;;;22.53;12.27;;;;;;;;;;6199953;28;20038;-78
2022/08/16 12:01:31;;;;;;;20.55;12.40;;;;;;;;;;6188544;28;20762;-78
2022/08/16 12:04:32;;;;;;;22.80;13.55;;;;;;;;;;6181613;28;20015;-79
2022/08/16 12:07:32;;;;;;;23.77;12.23;;;;;;;;;;6192599;28;20034;-78
2022/08/16 12:10:34;;;;;;;18.03;11.90;;;;;;;;;;6191758;28;20073;-78
2022/08/16 12:13:34;;;;;;;16.63;11.25;;;;;;;;;;6193689;28;20037;-78
2022/08/16 12:16:35;;;;;;;23.15;13.82;;;;;;;;;;6193792;28;20015;-78
2022/08/16 12:19:37;;;;;;;19.90;11.63;;;;;;;;;;6194493;28;20026;-77
2022/08/16 12:22:37;;;;;;;;;;;;;;;;;;6199166;28;20424;-78
2022/08/16 12:25:38;;;;;;;22.58;11.35;;;;;;;;;;6184211;28;20279;-77
2022/08/16 12:28:38;;;;;;;;;;;;;;;;;;6195919;28;20076;-78
2022/08/16 12:31:38;;;;;;;18.10;12.27;;;;;;;;;;6176160;28;19906;-78
2022/08/16 12:34:38;;;;;;;;;;;;;;;;;;6190758;28;20026;-77
2022/08/16 12:37:39;;;;;;;19.10;11.80;;;;;;;;;;6194756;28;19988;-77
2022/08/16 12:40:41;;;;;;;20.83;11.15;;;;;;;;;;6181857;28;20724;-77
2022/08/16 12:43:41;;;;;;;19.55;11.80;;;;;;;;;;6186044;28;20582;-78
2022/08/16 12:46:41;;;;;;;13.50;9.70;;;;;;;;;;6193002;28;20014;-77
2022/08/16 12:49:42;;;;;;;19.13;10.40;;;;;;;;;;6190043;28;20276;-77
2022/08/16 12:52:43;;;;;;;13.65;9.43;;;;;;;;;;6180803;28;20054;-77
2022/08/16 12:55:43;;;;;;;12.83;9.97;;;;;;;;;;6187383;28;20124;-78
2022/08/16 12:58:46;;;;;;;15.53;9.50;;;;;;;;;;6195513;28;20117;-78
2022/08/16 13:01:46;;;;;;;16.50;9.23;;;;;;;;;;6196211;28;20762;-78
2022/08/16 13:04:47;;;;;;;16.77;8.88;;;;;;;;;;6186311;28;20121;-78
2022/08/16 13:07:47;;;;;;;17.00;8.83;;;;;;;;;;6189545;28;20018;-77
2022/08/16 13:10:48;;;;;;;13.97;9.57;;;;;;;;;;6187584;28;20058;-77
2022/08/16 13:13:48;;;;;;;19.20;11.30;;;;;;;;;;6194378;28;21086;-77
2022/08/16 13:16:49;;;;;;;21.30;11.90;;;;;;;;;;6191467;28;20023;-77
2022/08/16 13:19:50;;;;;;;21.60;10.30;;;;;;;;;;6187953;28;20027;-76
2022/08/16 13:22:52;;;;;;;18.30;10.05;;;;;;;;;;6193265;28;20023;-76
2022/08/16 13:25:53;;;;;;;17.83;10.40;;;;;;;;;;6195528;28;20121;-76
2022/08/16 13:28:53;;;;;;;23.93;10.27;;;;;;;;;;6187251;28;20022;-76
2022/08/16 13:31:53;;;;;;;17.48;8.82;;;;;;;;;;6175871;28;20103;-76
2022/08/16 13:34:53;;;;;;;20.53;10.67;;;;;;;;;;6170475;28;20023;-77
2022/08/16 13:37:54;;;;;;;16.77;9.33;;;;;;;;;;6196069;28;20042;-77
2022/08/16 13:40:55;;;;;;;17.17;10.37;;;;;;;;;;6183735;28;20018;-76
2022/08/16 13:43:55;;;;;;;21.95;10.65;;;;;;;;;;6183852;28;20022;-76
2022/08/16 13:46:56;;;;;;;19.65;10.18;;;;;;;;;;6185562;28;20073;-76
2022/08/16 13:49:56;;;;;;;17.42;10.90;;;;;;;;;;6194080;28;20029;-77
2022/08/16 13:52:56;;;;;;;15.82;9.98;;;;;;;;;;6179034;28;20045;-77
2022/08/16 13:55:57;;;;;;;16.53;9.83;;;;;;;;;;6180990;28;20026;-78
2022/08/16 13:58:57;;;;;;;17.87;9.97;;;;;;;;;;6185949;28;20081;-77
2022/08/16 14:01:58;;;;;;;22.30;10.90;;;;;;;;;;6191333;28;20278;-76
2022/08/16 14:04:58;;;;;;;15.48;9.77;;;;;;;;;;6193113;28;20035;-76
2022/08/16 14:07:58;;;;;;;14.07;9.23;;;;;;;;;;6195102;28;20412;-76
2022/08/16 14:10:59;;;;;;;11.87;8.40;;;;;;;;;;6194582;28;20141;-76
2022/08/16 14:13:59;;;;;;;15.60;8.30;;;;;;;;;;6184447;28;20026;-76
2022/08/16 14:17:00;;;;;;;11.93;9.23;;;;;;;;;;6183889;28;20030;-76
2022/08/16 14:20:00;;;;;;;14.93;9.57;;;;;;;;;;6190544;28;20022;-75
2022/08/16 14:23:00;;;;;;;12.47;9.60;;;;;;;;;;6181550;28;20022;-75
2022/08/16 14:26:01;;;;;;;12.23;9.50;;;;;;;;;;6185282;28;20019;-75
2022/08/16 14:29:01;;;;;;;13.63;9.67;;;;;;;;;;6193593;28;20027;-77
2022/08/16 14:32:03;;;;;;;17.07;9.73;;;;;;;;;;6190815;28;20258;-75
2022/08/16 14:35:06;;;;;;;11.95;8.77;;;;;;;;;;6193840;28;20022;-76
2022/08/16 14:38:06;;;;;;;13.18;8.82;;;;;;;;;;6190449;28;20106;-76
2022/08/16 14:41:06;;;;;;;12.37;8.77;;;;;;;;;;6171869;28;20023;-76
2022/08/16 14:44:07;;;;;;;12.55;9.27;;;;;;;;;;6185740;28;20568;-76
2022/08/16 14:47:07;;;;;;;16.43;9.07;;;;;;;;;;6177613;28;20039;-77
2022/08/16 14:50:09;;;;;;;13.80;9.13;;;;;;;;;;6193910;28;20109;-76
2022/08/16 14:53:09;;;;;;;12.32;8.55;;;;;;;;;;6191689;28;20430;-76
2022/08/16 14:56:09;;;;;;;15.50;8.07;;;;;;;;;;6191779;28;20026;-77
2022/08/16 14:59:09;;;;;;;11.17;9.17;;;;;;;;;;6187851;28;20204;-77
2022/08/16 15:02:13;;;;;;;11.37;8.00;;;;;;;;;;6185269;28;20018;-76
2022/08/16 15:05:14;;;;;;;13.25;8.65;;;;;;;;;;6187319;28;20034;-77
2022/08/16 15:08:15;;;;;;;14.27;8.80;;;;;;;;;;6193882;28;20047;-76
2022/08/16 15:11:16;;;;;;;12.05;9.27;;;;;;;;;;6188231;28;20038;-76
2022/08/16 15:14:16;;;;;;;12.93;8.63;;;;;;;;;;6198695;28;20025;-77
2022/08/16 15:17:17;;;;;;;17.00;9.43;;;;;;;;;;6191473;28;20019;-77
2022/08/16 15:20:18;;;;;;;12.63;9.05;;;;;;;;;;6195813;28;20011;-76
2022/08/16 15:23:18;;;;;;;14.57;8.65;;;;;;;;;;6191884;28;20034;-76
2022/08/16 15:26:19;;;;;;;14.97;8.60;;;;;;;;;;6198301;28;20117;-76
2022/08/16 15:29:19;;;;;;;12.50;9.45;;;;;;;;;;6189483;28;20255;-76
2022/08/16 15:32:20;;;;;;;13.73;8.77;;;;;;;;;;6189331;28;20019;-77
2022/08/16 15:35:20;;;;;;;15.05;8.63;;;;;;;;;;6193967;28;20026;-76
2022/08/16 15:38:21;;;;;;;15.07;8.30;;;;;;;;;;6191452;28;20497;-76
2022/08/16 15:41:27;;;;;;;16.80;9.25;;;;;;;;;;6194977;28;20097;-77
2022/08/16 15:44:34;;;;;;;13.88;8.77;;;;;;;;;;6192834;28;20033;-77
2022/08/16 15:47:35;;;;;;;14.82;9.02;;;;;;;;;;6194794;28;20097;-76
2022/08/16 15:50:36;;;;;;;14.57;8.87;;;;;;;;;;6191813;28;20034;-77
2022/08/16 15:53:36;;;;;;;14.15;8.70;;;;;;;;;;6190277;28;20320;-77
2022/08/16 15:56:36;;;;;;;17.00;8.97;;;;;;;;;;6198942;28;20047;-76
2022/08/16 15:59:36;;;;;;;14.07;9.33;;;;;;;;;;6183546;28;20041;-77
2022/08/16 16:02:37;;;;;;;14.73;7.63;;;;;;;;;;6178382;28;20015;-77
2022/08/16 16:05:38;;;;;;;16.63;9.70;;;;;;;;;;6187012;28;20411;-77
2022/08/16 16:08:38;;;;;;;12.57;9.05;;;;;;;;;;6192029;28;20010;-77
2022/08/16 16:11:39;;;;;;;14.30;8.90;;;;;;;;;;6195366;28;20037;-77
2022/08/16 16:14:39;;;;;;;10.65;7.80;;;;;;;;;;6193570;28;20545;-77
2022/08/16 16:17:40;;;;;;;12.55;7.80;;;;;;;;;;6184521;28;20018;-77
2022/08/16 16:20:46;;;;;;;12.20;7.40;;;;;;;;;;6193446;28;20090;-76
2022/08/16 16:23:47;;;;;;;14.38;7.82;;;;;;;;;;6182247;28;20487;-77
2022/08/16 16:26:47;;;;;;;13.00;7.97;;;;;;;;;;6195491;28;20084;-76
2022/08/16 16:29:47;;;;;;;11.97;7.27;;;;;;;;;;6193502;28;20026;-77
2022/08/16 16:32:47;;;;;;;12.93;8.17;;;;;;;;;;6196726;28;20069;-77
2022/08/16 16:35:50;;;;;;;13.57;7.53;;;;;;;;;;6189249;28;20395;-78
2022/08/16 16:38:50;;;;;;;12.15;7.78;;;;;;;;;;6193859;28;20027;-77
2022/08/16 16:41:50;;;;;;;14.93;7.80;;;;;;;;;;6193518;28;20029;-78
2022/08/16 16:44:51;;;;;;;11.73;7.32;;;;;;;;;;6195768;28;20040;-78
2022/08/16 16:47:51;;;;;;;12.03;8.70;;;;;;;;;;6189294;28;20049;-78
2022/08/16 16:50:52;;;;;;;10.90;7.90;;;;;;;;;;6193179;28;20030;-78
2022/08/16 16:53:52;;;;;;;11.55;7.60;;;;;;;;;;6181044;28;20341;-78
2022/08/16 16:56:52;;;;;;;11.17;8.03;;;;;;;;;;6194835;28;20487;-78
2022/08/16 16:59:52;;;;;;;12.63;8.43;;;;;;;;;;6185117;28;20266;-79
2022/08/16 17:02:54;;;;;;;11.40;7.67;;;;;;;;;;6179797;28;20027;-79
2022/08/16 17:05:54;;;;;;;12.35;7.78;;;;;;;;;;6187349;28;20105;-79
2022/08/16 17:08:54;;;;;;;;;;;;;;;;;;6195527;28;20023;-78
2022/08/16 17:11:55;;;;;;;15.45;8.50;;;;;;;;;;6195867;28;20381;-78
2022/08/16 17:14:56;;;;;;;;;;;;;;;;;;6185268;28;20034;-78
2022/08/16 17:17:57;;;;;;;15.23;8.17;;;;;;;;;;6191193;28;20095;-78
2022/08/16 17:20:58;;;;;;;14.40;9.70;;;;;;;;;;6189656;28;20046;-78
2022/08/16 17:23:58;;;;;;;;;;;;;;;;;;6191942;28;20030;-78
2022/08/16 17:26:59;;;;;;;13.55;9.70;;;;;;;;;;6190306;28;20370;-78
2022/08/16 17:30:00;;;;;;;12.20;8.82;;;;;;;;;;6194206;28;20026;-78
2022/08/16 17:33:00;;;;;;;;;;;;;;;;;;6186205;28;20030;-78
2022/08/16 17:36:00;;;;;;;13.82;10.32;;;;;;;;;;6175920;28;19906;-78
2022/08/16 17:39:00;;;;;;;19.43;10.97;;;;;;;;;;6190072;28;20018;-78
2022/08/16 17:42:02;;;;;;;16.60;10.50;;;;;;;;;;6193132;28;20109;-78
2022/08/16 17:45:03;;;;;;;22.65;12.73;;;;;;;;;;6179466;28;20034;-78